createdAt,value
2023-03-19T06:20:06.078Z,2.68
2023-03-19T06:30:06.199Z,2.22
2023-03-19T06:40:06.354Z,4.94
2023-03-19T06:50:06.196Z,4.41
2023-03-19T07:00:06.349Z,3.64
2023-03-19T07:10:06.107Z,4.53
2023-03-19T07:20:06.408Z,7.84
2023-03-19T07:30:06.282Z,8.47
2023-03-19T07:40:06.236Z,9.17
2023-03-19T07:50:06.306Z,8.20
2023-03-19T08:00:06.263Z,8.23
2023-03-19T08:10:06.249Z,9.51
2023-03-19T08:20:06.392Z,8.23
2023-03-19T08:30:06.459Z,8.25
2023-03-19T08:40:06.357Z,9.13
2023-03-19T08:50:06.593Z,10.13
2023-03-19T09:00:06.336Z,10.91
2023-03-19T09:10:06.491Z,11.61
2023-03-19T09:20:06.393Z,9.19
2023-03-19T09:30:06.442Z,0.00
2023-03-19T09:40:06.545Z,0.00
2023-03-19T09:50:06.585Z,0.00
2023-03-19T10:00:06.548Z,0.00
2023-03-19T10:10:06.518Z,0.00
2023-03-19T10:20:06.593Z,0.00
2023-03-19T10:30:06.803Z,0.00
2023-03-19T10:40:06.496Z,0.00
2023-03-19T10:50:06.474Z,0.00
2023-03-19T11:00:06.561Z,0.00
2023-03-19T11:10:06.648Z,0.00
2023-03-19T11:20:06.980Z,0.00
2023-03-19T11:30:06.631Z,0.00
2023-03-19T11:40:06.791Z,0.00
2023-03-19T11:50:06.529Z,0.00
2023-03-19T12:00:06.590Z,0.00
2023-03-19T12:10:06.663Z,0.00
2023-03-19T12:20:06.858Z,0.00
2023-03-19T12:30:06.518Z,0.00
2023-03-19T12:40:07.099Z,0.00
2023-03-19T12:50:06.740Z,0.00
2023-03-19T13:00:06.963Z,0.00
2023-03-19T13:10:06.837Z,0.00
2023-03-19T13:20:06.740Z,0.00
2023-03-19T13:30:07.026Z,0.00
2023-03-19T13:40:06.774Z,0.00
2023-03-19T13:50:06.947Z,0.00
2023-03-19T14:00:06.809Z,0.00
2023-03-19T14:10:06.766Z,0.00
2023-03-19T14:20:08.995Z,0.00
2023-03-19T14:30:07.071Z,0.00
2023-03-19T14:40:06.789Z,0.00
2023-03-19T14:50:06.910Z,0.00
2023-03-19T15:00:06.900Z,0.00
2023-03-19T15:10:06.885Z,0.00
2023-03-19T15:20:07.136Z,0.00
2023-03-19T15:30:14.496Z,0.00
2023-03-19T15:40:06.874Z,0.00
2023-03-19T15:50:07.114Z,0.00
2023-03-19T16:00:06.698Z,0.00
2023-03-19T16:10:07.052Z,0.00
2023-03-19T16:20:06.931Z,0.00
2023-03-19T16:30:06.778Z,0.00
2023-03-19T16:40:06.953Z,0.00
2023-03-19T16:50:06.922Z,0.00
2023-03-19T17:00:07.179Z,0.00
2023-03-19T17:10:06.907Z,0.00
2023-03-19T17:20:07.040Z,0.00
2023-03-19T17:30:07.069Z,0.00
2023-03-19T17:40:07.046Z,0.00
2023-03-19T17:50:07.228Z,0.00
2023-03-19T18:00:07.166Z,0.03
2023-03-19T18:10:07.236Z,0.07
2023-03-19T18:20:07.001Z,0.91
2023-03-19T18:30:07.162Z,1.23
2023-03-19T18:40:06.994Z,0.00
2023-03-19T18:50:06.994Z,0.00
2023-03-19T19:00:07.054Z,0.00
2023-03-19T19:10:07.531Z,0.00
2023-03-19T19:20:07.406Z,2.29
